sensor_id;sensor_type;location;lat;lon;timestamp;P1;durP1;ratioP1;P2;durP2;ratioP2
2998;SDS011;1509;51.964;7.628;2023-02-28T00:00:51;9.40;;;6.87;;
2998;SDS011;1509;51.964;7.628;2023-02-28T00:03:16;12.57;;;7.77;;
2998;SDS011;1509;51.964;7.628;2023-02-28T00:05:42;12.23;;;7.33;;
2998;SDS011;1509;51.964;7.628;2023-02-28T00:08:08;9.60;;;6.63;;
2998;SDS011;1509;51.964;7.628;2023-02-28T00:10:43;9.97;;;7.43;;
2998;SDS011;1509;51.964;7.628;2023-02-28T00:13:11;8.77;;;7.87;;
2998;SDS011;1509;51.964;7.628;2023-02-28T00:15:38;14.40;;;8.10;;
2998;SDS011;1509;51.964;7.628;2023-02-28T00:18:03;12.77;;;9.00;;
2998;SDS011;1509;51.964;7.628;2023-02-28T00:20:29;13.03;;;8.83;;
2998;SDS011;1509;51.964;7.628;2023-02-28T00:22:55;9.50;;;8.50;;
2998;SDS011;1509;51.964;7.628;2023-02-28T00:25:22;11.70;;;8.50;;
2998;SDS011;1509;51.964;7.628;2023-02-28T00:27:49;10.30;;;8.67;;
2998;SDS011;1509;51.964;7.628;2023-02-28T00:30:16;11.00;;;8.77;;
2998;SDS011;1509;51.964;7.628;2023-02-28T00:32:44;10.40;;;8.30;;
2998;SDS011;1509;51.964;7.628;2023-02-28T00:38:17;8.20;;;6.77;;
2998;SDS011;1509;51.964;7.628;2023-02-28T00:40:42;8.93;;;6.90;;
2998;SDS011;1509;51.964;7.628;2023-02-28T00:43:08;9.90;;;7.00;;
2998;SDS011;1509;51.964;7.628;2023-02-28T00:45:34;9.23;;;6.70;;
2998;SDS011;1509;51.964;7.628;2023-02-28T00:47:59;7.77;;;6.80;;
2998;SDS011;1509;51.964;7.628;2023-02-28T00:50:25;11.87;;;6.30;;
2998;SDS011;1509;51.964;7.628;2023-02-28T00:52:50;8.67;;;6.30;;
2998;SDS011;1509;51.964;7.628;2023-02-28T00:55:16;10.27;;;6.60;;
2998;SDS011;1509;51.964;7.628;2023-02-28T00:57:43;7.87;;;6.67;;
2998;SDS011;1509;51.964;7.628;2023-02-28T01:00:09;11.00;;;6.00;;
2998;SDS011;1509;51.964;7.628;2023-02-28T01:02:35;10.00;;;6.07;;
2998;SDS011;1509;51.964;7.628;2023-02-28T01:08:07;6.80;;;5.90;;
2998;SDS011;1509;51.964;7.628;2023-02-28T01:10:33;11.20;;;6.60;;
2998;SDS011;1509;51.964;7.628;2023-02-28T01:12:59;8.27;;;5.90;;
2998;SDS011;1509;51.964;7.628;2023-02-28T01:15:24;7.70;;;5.83;;
2998;SDS011;1509;51.964;7.628;2023-02-28T01:17:50;12.00;;;6.53;;
2998;SDS011;1509;51.964;7.628;2023-02-28T01:20:15;9.20;;;7.27;;
2998;SDS011;1509;51.964;7.628;2023-02-28T01:22:41;7.60;;;6.43;;
2998;SDS011;1509;51.964;7.628;2023-02-28T01:25:07;10.33;;;5.93;;
2998;SDS011;1509;51.964;7.628;2023-02-28T01:27:33;9.50;;;6.37;;
2998;SDS011;1509;51.964;7.628;2023-02-28T01:29:58;10.50;;;6.60;;
2998;SDS011;1509;51.964;7.628;2023-02-28T01:32:24;7.07;;;6.13;;
2998;SDS011;1509;51.964;7.628;2023-02-28T01:34:49;10.87;;;5.90;;
2998;SDS011;1509;51.964;7.628;2023-02-28T01:37:15;7.40;;;5.97;;
2998;SDS011;1509;51.964;7.628;2023-02-28T01:39:40;10.80;;;7.13;;
2998;SDS011;1509;51.964;7.628;2023-02-28T01:42:08;9.47;;;7.03;;
2998;SDS011;1509;51.964;7.628;2023-02-28T01:47:29;9.17;;;6.77;;
2998;SDS011;1509;51.964;7.628;2023-02-28T01:50:02;8.23;;;5.67;;
2998;SDS011;1509;51.964;7.628;2023-02-28T01:52:32;8.80;;;5.57;;
2998;SDS011;1509;51.964;7.628;2023-02-28T01:54:59;11.67;;;6.30;;
2998;SDS011;1509;51.964;7.628;2023-02-28T01:57:37;8.50;;;6.53;;
2998;SDS011;1509;51.964;7.628;2023-02-28T02:00:08;7.33;;;5.60;;
2998;SDS011;1509;51.964;7.628;2023-02-28T02:02:43;7.13;;;5.73;;
2998;SDS011;1509;51.964;7.628;2023-02-28T02:05:15;12.07;;;6.83;;
2998;SDS011;1509;51.964;7.628;2023-02-28T02:07:44;7.27;;;6.10;;
2998;SDS011;1509;51.964;7.628;2023-02-28T02:10:17;8.43;;;6.40;;
2998;SDS011;1509;51.964;7.628;2023-02-28T02:15:44;10.30;;;5.23;;
2998;SDS011;1509;51.964;7.628;2023-02-28T02:32:28;9.20;;;6.40;;
2998;SDS011;1509;51.964;7.628;2023-02-28T02:38:36;7.97;;;6.07;;
2998;SDS011;1509;51.964;7.628;2023-02-28T02:41:14;8.73;;;6.73;;
2998;SDS011;1509;51.964;7.628;2023-02-28T02:44:02;10.67;;;6.47;;
2998;SDS011;1509;51.964;7.628;2023-02-28T02:46:35;9.27;;;6.93;;
2998;SDS011;1509;51.964;7.628;2023-02-28T02:49:09;9.10;;;6.17;;
2998;SDS011;1509;51.964;7.628;2023-02-28T02:51:40;7.53;;;6.77;;
2998;SDS011;1509;51.964;7.628;2023-02-28T02:54:27;7.43;;;5.60;;
2998;SDS011;1509;51.964;7.628;2023-02-28T02:56:57;7.00;;;6.00;;
2998;SDS011;1509;51.964;7.628;2023-02-28T02:59:26;8.67;;;5.93;;
2998;SDS011;1509;51.964;7.628;2023-02-28T03:01:55;8.03;;;6.87;;
2998;SDS011;1509;51.964;7.628;2023-02-28T03:04:24;11.80;;;6.83;;
2998;SDS011;1509;51.964;7.628;2023-02-28T03:06:53;8.00;;;6.20;;
2998;SDS011;1509;51.964;7.628;2023-02-28T03:09:22;11.17;;;7.07;;
2998;SDS011;1509;51.964;7.628;2023-02-28T03:11:50;9.13;;;6.40;;
2998;SDS011;1509;51.964;7.628;2023-02-28T03:19:54;8.80;;;6.13;;
2998;SDS011;1509;51.964;7.628;2023-02-28T03:33:19;8.70;;;6.03;;
2998;SDS011;1509;51.964;7.628;2023-02-28T03:36:02;9.67;;;5.80;;
2998;SDS011;1509;51.964;7.628;2023-02-28T03:38:51;11.47;;;6.90;;
2998;SDS011;1509;51.964;7.628;2023-02-28T03:41:49;8.77;;;5.77;;
2998;SDS011;1509;51.964;7.628;2023-02-28T03:44:24;11.90;;;6.50;;
2998;SDS011;1509;51.964;7.628;2023-02-28T03:46:59;15.63;;;6.70;;
2998;SDS011;1509;51.964;7.628;2023-02-28T03:49:35;9.33;;;6.53;;
2998;SDS011;1509;51.964;7.628;2023-02-28T03:52:08;8.90;;;5.87;;
2998;SDS011;1509;51.964;7.628;2023-02-28T03:54:35;11.97;;;7.70;;
2998;SDS011;1509;51.964;7.628;2023-02-28T03:59:35;8.80;;;6.63;;
2998;SDS011;1509;51.964;7.628;2023-02-28T04:02:18;15.00;;;6.10;;
2998;SDS011;1509;51.964;7.628;2023-02-28T04:04:43;9.80;;;7.07;;
2998;SDS011;1509;51.964;7.628;2023-02-28T04:07:10;9.50;;;6.63;;
2998;SDS011;1509;51.964;7.628;2023-02-28T04:09:36;7.80;;;6.20;;
2998;SDS011;1509;51.964;7.628;2023-02-28T04:12:02;11.63;;;6.60;;
2998;SDS011;1509;51.964;7.628;2023-02-28T04:14:28;17.20;;;7.77;;
2998;SDS011;1509;51.964;7.628;2023-02-28T04:16:54;9.27;;;7.43;;
2998;SDS011;1509;51.964;7.628;2023-02-28T04:19:19;12.47;;;8.13;;
2998;SDS011;1509;51.964;7.628;2023-02-28T04:21:50;11.40;;;7.60;;
2998;SDS011;1509;51.964;7.628;2023-02-28T04:24:28;13.90;;;8.50;;
2998;SDS011;1509;51.964;7.628;2023-02-28T04:26:55;9.20;;;6.47;;
2998;SDS011;1509;51.964;7.628;2023-02-28T04:29:28;10.23;;;7.50;;
2998;SDS011;1509;51.964;7.628;2023-02-28T04:31:55;9.53;;;7.70;;
2998;SDS011;1509;51.964;7.628;2023-02-28T04:34:25;13.50;;;7.80;;
2998;SDS011;1509;51.964;7.628;2023-02-28T04:36:51;9.70;;;7.00;;
2998;SDS011;1509;51.964;7.628;2023-02-28T04:39:19;9.27;;;6.97;;
2998;SDS011;1509;51.964;7.628;2023-02-28T04:41:46;9.07;;;7.00;;
2998;SDS011;1509;51.964;7.628;2023-02-28T04:44:12;9.97;;;7.33;;
2998;SDS011;1509;51.964;7.628;2023-02-28T04:46:38;12.23;;;8.30;;
2998;SDS011;1509;51.964;7.628;2023-02-28T04:49:03;13.40;;;8.10;;
2998;SDS011;1509;51.964;7.628;2023-02-28T04:51:29;12.23;;;7.37;;
2998;SDS011;1509;51.964;7.628;2023-02-28T04:53:55;12.03;;;6.80;;
2998;SDS011;1509;51.964;7.628;2023-02-28T04:56:20;7.60;;;6.70;;
2998;SDS011;1509;51.964;7.628;2023-02-28T04:58:47;9.17;;;6.80;;
2998;SDS011;1509;51.964;7.628;2023-02-28T05:01:23;11.23;;;7.20;;
2998;SDS011;1509;51.964;7.628;2023-02-28T05:03:50;9.97;;;7.30;;
2998;SDS011;1509;51.964;7.628;2023-02-28T05:06:17;9.17;;;6.77;;
2998;SDS011;1509;51.964;7.628;2023-02-28T05:08:43;10.67;;;7.10;;
2998;SDS011;1509;51.964;7.628;2023-02-28T05:11:14;7.90;;;6.70;;
2998;SDS011;1509;51.964;7.628;2023-02-28T05:13:42;13.00;;;8.70;;
2998;SDS011;1509;51.964;7.628;2023-02-28T05:16:08;10.97;;;7.40;;
2998;SDS011;1509;51.964;7.628;2023-02-28T05:18:33;13.57;;;8.00;;
2998;SDS011;1509;51.964;7.628;2023-02-28T05:20:59;9.77;;;7.67;;
2998;SDS011;1509;51.964;7.628;2023-02-28T05:23:28;9.90;;;7.40;;
2998;SDS011;1509;51.964;7.628;2023-02-28T05:25:54;9.77;;;7.80;;
2998;SDS011;1509;51.964;7.628;2023-02-28T05:28:20;9.67;;;7.43;;
2998;SDS011;1509;51.964;7.628;2023-02-28T05:30:46;16.63;;;6.80;;
2998;SDS011;1509;51.964;7.628;2023-02-28T05:33:12;10.23;;;7.30;;
2998;SDS011;1509;51.964;7.628;2023-02-28T05:35:40;8.07;;;6.00;;
2998;SDS011;1509;51.964;7.628;2023-02-28T05:38:07;10.07;;;7.17;;
2998;SDS011;1509;51.964;7.628;2023-02-28T05:40:33;8.87;;;6.87;;
2998;SDS011;1509;51.964;7.628;2023-02-28T05:42:59;8.10;;;5.63;;
2998;SDS011;1509;51.964;7.628;2023-02-28T05:45:25;9.50;;;6.47;;
2998;SDS011;1509;51.964;7.628;2023-02-28T05:47:54;8.23;;;6.40;;
2998;SDS011;1509;51.964;7.628;2023-02-28T05:50:23;10.47;;;7.17;;
2998;SDS011;1509;51.964;7.628;2023-02-28T05:52:49;8.80;;;6.60;;
2998;SDS011;1509;51.964;7.628;2023-02-28T05:55:15;8.13;;;6.50;;
2998;SDS011;1509;51.964;7.628;2023-02-28T05:57:41;13.93;;;7.70;;
2998;SDS011;1509;51.964;7.628;2023-02-28T06:00:07;13.60;;;6.87;;
2998;SDS011;1509;51.964;7.628;2023-02-28T06:02:34;13.27;;;6.90;;
2998;SDS011;1509;51.964;7.628;2023-02-28T06:04:59;10.23;;;6.90;;
2998;SDS011;1509;51.964;7.628;2023-02-28T06:07:25;10.10;;;7.70;;
2998;SDS011;1509;51.964;7.628;2023-02-28T06:09:51;12.43;;;8.83;;
2998;SDS011;1509;51.964;7.628;2023-02-28T06:12:16;17.00;;;10.03;;
2998;SDS011;1509;51.964;7.628;2023-02-28T06:14:42;14.23;;;8.63;;
2998;SDS011;1509;51.964;7.628;2023-02-28T06:17:08;13.63;;;9.60;;
2998;SDS011;1509;51.964;7.628;2023-02-28T06:19:36;11.60;;;8.87;;
2998;SDS011;1509;51.964;7.628;2023-02-28T06:22:03;13.77;;;10.63;;
2998;SDS011;1509;51.964;7.628;2023-02-28T06:24:29;13.73;;;9.30;;
2998;SDS011;1509;51.964;7.628;2023-02-28T06:26:56;13.47;;;9.77;;
2998;SDS011;1509;51.964;7.628;2023-02-28T06:29:23;11.03;;;8.70;;
2998;SDS011;1509;51.964;7.628;2023-02-28T06:31:50;11.40;;;10.07;;
2998;SDS011;1509;51.964;7.628;2023-02-28T06:34:16;11.83;;;8.47;;
2998;SDS011;1509;51.964;7.628;2023-02-28T06:36:42;12.40;;;8.10;;
2998;SDS011;1509;51.964;7.628;2023-02-28T06:39:08;11.30;;;8.43;;
2998;SDS011;1509;51.964;7.628;2023-02-28T06:41:34;9.47;;;6.57;;
2998;SDS011;1509;51.964;7.628;2023-02-28T06:44:05;12.93;;;7.90;;
2998;SDS011;1509;51.964;7.628;2023-02-28T06:46:36;13.93;;;7.40;;
2998;SDS011;1509;51.964;7.628;2023-02-28T06:49:03;9.40;;;7.90;;
2998;SDS011;1509;51.964;7.628;2023-02-28T06:51:33;9.73;;;7.27;;
2998;SDS011;1509;51.964;7.628;2023-02-28T06:54:00;11.10;;;8.13;;
2998;SDS011;1509;51.964;7.628;2023-02-28T06:56:26;11.73;;;7.00;;
2998;SDS011;1509;51.964;7.628;2023-02-28T06:58:51;10.53;;;6.93;;
2998;SDS011;1509;51.964;7.628;2023-02-28T07:01:23;14.80;;;8.17;;
2998;SDS011;1509;51.964;7.628;2023-02-28T07:03:49;9.53;;;8.10;;
2998;SDS011;1509;51.964;7.628;2023-02-28T07:06:17;15.90;;;10.57;;
2998;SDS011;1509;51.964;7.628;2023-02-28T07:08:44;21.30;;;11.50;;
2998;SDS011;1509;51.964;7.628;2023-02-28T07:11:10;15.30;;;11.97;;
2998;SDS011;1509;51.964;7.628;2023-02-28T07:13:35;15.93;;;11.00;;
2998;SDS011;1509;51.964;7.628;2023-02-28T07:16:05;16.43;;;12.70;;
2998;SDS011;1509;51.964;7.628;2023-02-28T07:18:32;13.37;;;9.80;;
2998;SDS011;1509;51.964;7.628;2023-02-28T07:21:01;18.37;;;11.47;;
2998;SDS011;1509;51.964;7.628;2023-02-28T07:23:27;13.80;;;10.20;;
2998;SDS011;1509;51.964;7.628;2023-02-28T07:25:53;16.13;;;10.70;;
2998;SDS011;1509;51.964;7.628;2023-02-28T07:28:19;21.20;;;11.20;;
2998;SDS011;1509;51.964;7.628;2023-02-28T07:30:44;15.63;;;10.90;;
2998;SDS011;1509;51.964;7.628;2023-02-28T07:33:10;17.80;;;10.53;;
2998;SDS011;1509;51.964;7.628;2023-02-28T07:35:35;20.00;;;10.97;;
2998;SDS011;1509;51.964;7.628;2023-02-28T07:38:04;16.87;;;10.67;;
2998;SDS011;1509;51.964;7.628;2023-02-28T07:40:30;16.07;;;9.67;;
2998;SDS011;1509;51.964;7.628;2023-02-28T07:42:56;16.27;;;9.90;;
2998;SDS011;1509;51.964;7.628;2023-02-28T07:45:23;16.83;;;9.63;;
2998;SDS011;1509;51.964;7.628;2023-02-28T07:47:49;14.33;;;9.40;;
2998;SDS011;1509;51.964;7.628;2023-02-28T07:50:15;15.10;;;9.33;;
2998;SDS011;1509;51.964;7.628;2023-02-28T07:52:41;20.63;;;9.63;;
2998;SDS011;1509;51.964;7.628;2023-02-28T07:55:07;25.70;;;11.33;;
2998;SDS011;1509;51.964;7.628;2023-02-28T07:57:34;19.23;;;11.57;;
2998;SDS011;1509;51.964;7.628;2023-02-28T08:00:00;27.23;;;13.83;;
2998;SDS011;1509;51.964;7.628;2023-02-28T08:02:26;21.27;;;11.83;;
2998;SDS011;1509;51.964;7.628;2023-02-28T08:04:51;26.37;;;12.73;;
2998;SDS011;1509;51.964;7.628;2023-02-28T08:07:17;24.77;;;12.63;;
2998;SDS011;1509;51.964;7.628;2023-02-28T08:09:43;32.20;;;15.47;;
2998;SDS011;1509;51.964;7.628;2023-02-28T08:12:10;24.70;;;12.67;;
2998;SDS011;1509;51.964;7.628;2023-02-28T08:14:36;24.03;;;13.33;;
2998;SDS011;1509;51.964;7.628;2023-02-28T08:17:02;21.00;;;11.97;;
2998;SDS011;1509;51.964;7.628;2023-02-28T08:19:28;27.93;;;12.17;;
2998;SDS011;1509;51.964;7.628;2023-02-28T08:21:55;28.63;;;12.53;;
2998;SDS011;1509;51.964;7.628;2023-02-28T08:24:21;21.50;;;10.40;;
2998;SDS011;1509;51.964;7.628;2023-02-28T08:26:46;21.30;;;10.57;;
2998;SDS011;1509;51.964;7.628;2023-02-28T08:29:12;20.23;;;12.10;;
2998;SDS011;1509;51.964;7.628;2023-02-28T08:31:38;21.53;;;11.43;;
2998;SDS011;1509;51.964;7.628;2023-02-28T08:34:10;23.40;;;10.30;;
2998;SDS011;1509;51.964;7.628;2023-02-28T08:36:38;21.10;;;10.23;;
2998;SDS011;1509;51.964;7.628;2023-02-28T08:39:04;19.37;;;9.07;;
2998;SDS011;1509;51.964;7.628;2023-02-28T08:41:30;12.10;;;7.30;;
2998;SDS011;1509;51.964;7.628;2023-02-28T08:43:56;5.60;;;4.20;;
2998;SDS011;1509;51.964;7.628;2023-02-28T08:46:22;11.83;;;5.80;;
2998;SDS011;1509;51.964;7.628;2023-02-28T08:48:51;5.20;;;3.20;;
2998;SDS011;1509;51.964;7.628;2023-02-28T08:51:18;3.87;;;3.43;;
2998;SDS011;1509;51.964;7.628;2023-02-28T08:53:51;4.17;;;3.10;;
2998;SDS011;1509;51.964;7.628;2023-02-28T08:56:17;4.10;;;3.10;;
2998;SDS011;1509;51.964;7.628;2023-02-28T08:58:44;3.87;;;2.50;;
2998;SDS011;1509;51.964;7.628;2023-02-28T09:01:14;3.40;;;2.50;;
2998;SDS011;1509;51.964;7.628;2023-02-28T09:03:41;3.80;;;2.30;;
2998;SDS011;1509;51.964;7.628;2023-02-28T09:06:10;3.43;;;2.37;;
2998;SDS011;1509;51.964;7.628;2023-02-28T09:08:36;4.37;;;2.90;;
2998;SDS011;1509;51.964;7.628;2023-02-28T09:11:05;3.53;;;2.57;;
2998;SDS011;1509;51.964;7.628;2023-02-28T09:13:38;3.57;;;2.97;;
2998;SDS011;1509;51.964;7.628;2023-02-28T09:16:05;7.73;;;3.60;;
2998;SDS011;1509;51.964;7.628;2023-02-28T09:18:33;3.03;;;2.50;;
2998;SDS011;1509;51.964;7.628;2023-02-28T09:21:02;2.90;;;2.40;;
2998;SDS011;1509;51.964;7.628;2023-02-28T09:23:32;4.47;;;3.07;;
2998;SDS011;1509;51.964;7.628;2023-02-28T09:25:57;5.97;;;2.37;;
2998;SDS011;1509;51.964;7.628;2023-02-28T09:28:23;2.87;;;2.53;;
2998;SDS011;1509;51.964;7.628;2023-02-28T09:30:50;4.93;;;2.10;;
2998;SDS011;1509;51.964;7.628;2023-02-28T09:33:18;3.40;;;2.03;;
2998;SDS011;1509;51.964;7.628;2023-02-28T09:35:48;5.53;;;1.80;;
2998;SDS011;1509;51.964;7.628;2023-02-28T09:38:14;3.30;;;2.70;;
2998;SDS011;1509;51.964;7.628;2023-02-28T09:40:50;5.20;;;2.17;;
2998;SDS011;1509;51.964;7.628;2023-02-28T09:43:20;4.50;;;2.17;;
2998;SDS011;1509;51.964;7.628;2023-02-28T09:45:57;2.83;;;2.00;;
2998;SDS011;1509;51.964;7.628;2023-02-28T09:48:27;4.20;;;1.80;;
2998;SDS011;1509;51.964;7.628;2023-02-28T09:51:04;3.17;;;1.97;;
2998;SDS011;1509;51.964;7.628;2023-02-28T09:53:37;2.73;;;1.90;;
2998;SDS011;1509;51.964;7.628;2023-02-28T09:56:09;3.83;;;1.80;;
2998;SDS011;1509;51.964;7.628;2023-02-28T09:58:59;3.20;;;2.10;;
2998;SDS011;1509;51.964;7.628;2023-02-28T10:01:34;2.50;;;1.50;;
2998;SDS011;1509;51.964;7.628;2023-02-28T10:04:28;3.40;;;1.60;;
2998;SDS011;1509;51.964;7.628;2023-02-28T10:06:55;5.20;;;1.80;;
2998;SDS011;1509;51.964;7.628;2023-02-28T10:09:24;3.70;;;1.73;;
2998;SDS011;1509;51.964;7.628;2023-02-28T10:11:56;5.20;;;1.63;;
2998;SDS011;1509;51.964;7.628;2023-02-28T10:14:28;2.70;;;1.70;;
2998;SDS011;1509;51.964;7.628;2023-02-28T10:16:56;2.40;;;1.80;;
2998;SDS011;1509;51.964;7.628;2023-02-28T10:24:44;2.87;;;1.60;;
2998;SDS011;1509;51.964;7.628;2023-02-28T10:27:13;2.60;;;1.70;;
2998;SDS011;1509;51.964;7.628;2023-02-28T10:29:41;2.63;;;2.10;;
2998;SDS011;1509;51.964;7.628;2023-02-28T10:32:14;2.63;;;2.00;;
2998;SDS011;1509;51.964;7.628;2023-02-28T10:34:43;4.70;;;1.60;;
2998;SDS011;1509;51.964;7.628;2023-02-28T10:37:09;3.63;;;2.00;;
2998;SDS011;1509;51.964;7.628;2023-02-28T10:39:45;4.23;;;1.97;;
2998;SDS011;1509;51.964;7.628;2023-02-28T10:44:55;3.33;;;1.80;;
2998;SDS011;1509;51.964;7.628;2023-02-28T10:47:31;2.63;;;1.70;;
2998;SDS011;1509;51.964;7.628;2023-02-28T10:50:01;2.93;;;1.80;;
2998;SDS011;1509;51.964;7.628;2023-02-28T10:52:35;5.80;;;3.30;;
2998;SDS011;1509;51.964;7.628;2023-02-28T10:55:19;4.90;;;2.97;;
2998;SDS011;1509;51.964;7.628;2023-02-28T10:57:45;3.13;;;2.17;;
2998;SDS011;1509;51.964;7.628;2023-02-28T11:00:16;3.03;;;1.93;;
2998;SDS011;1509;51.964;7.628;2023-02-28T11:02:47;3.10;;;2.13;;
2998;SDS011;1509;51.964;7.628;2023-02-28T11:05:32;2.70;;;2.40;;
2998;SDS011;1509;51.964;7.628;2023-02-28T11:10:28;2.80;;;2.50;;
2998;SDS011;1509;51.964;7.628;2023-02-28T11:12:59;3.67;;;2.23;;
2998;SDS011;1509;51.964;7.628;2023-02-28T11:15:30;8.00;;;4.70;;
2998;SDS011;1509;51.964;7.628;2023-02-28T11:20:42;2.73;;;2.00;;
2998;SDS011;1509;51.964;7.628;2023-02-28T11:23:14;2.60;;;2.00;;
2998;SDS011;1509;51.964;7.628;2023-02-28T11:25:48;2.97;;;2.10;;
2998;SDS011;1509;51.964;7.628;2023-02-28T11:36:24;3.50;;;1.90;;
2998;SDS011;1509;51.964;7.628;2023-02-28T11:38:56;2.97;;;1.90;;
2998;SDS011;1509;51.964;7.628;2023-02-28T11:44:23;3.20;;;2.07;;
2998;SDS011;1509;51.964;7.628;2023-02-28T11:52:40;3.83;;;2.10;;
2998;SDS011;1509;51.964;7.628;2023-02-28T11:55:25;3.73;;;2.07;;
2998;SDS011;1509;51.964;7.628;2023-02-28T11:58:14;3.30;;;1.90;;
2998;SDS011;1509;51.964;7.628;2023-02-28T12:03:23;3.37;;;2.00;;
2998;SDS011;1509;51.964;7.628;2023-02-28T12:06:24;4.60;;;2.57;;
2998;SDS011;1509;51.964;7.628;2023-02-28T12:17:36;3.93;;;2.20;;
2998;SDS011;1509;51.964;7.628;2023-02-28T12:26:10;3.37;;;2.77;;
2998;SDS011;1509;51.964;7.628;2023-02-28T12:28:48;4.63;;;2.20;;
2998;SDS011;1509;51.964;7.628;2023-02-28T12:31:23;3.77;;;2.70;;
2998;SDS011;1509;51.964;7.628;2023-02-28T12:33:52;4.27;;;2.97;;
2998;SDS011;1509;51.964;7.628;2023-02-28T12:36:21;2.93;;;2.60;;
2998;SDS011;1509;51.964;7.628;2023-02-28T12:38:51;5.63;;;3.20;;
2998;SDS011;1509;51.964;7.628;2023-02-28T12:41:37;3.13;;;2.83;;
2998;SDS011;1509;51.964;7.628;2023-02-28T12:44:09;4.60;;;3.20;;
2998;SDS011;1509;51.964;7.628;2023-02-28T12:46:41;3.80;;;3.07;;
2998;SDS011;1509;51.964;7.628;2023-02-28T12:51:59;5.93;;;2.63;;
2998;SDS011;1509;51.964;7.628;2023-02-28T12:54:29;3.53;;;2.70;;
2998;SDS011;1509;51.964;7.628;2023-02-28T12:59:45;5.10;;;3.60;;
2998;SDS011;1509;51.964;7.628;2023-02-28T13:10:04;4.20;;;2.47;;
2998;SDS011;1509;51.964;7.628;2023-02-28T13:12:32;4.97;;;2.53;;
2998;SDS011;1509;51.964;7.628;2023-02-28T13:15:07;3.27;;;2.10;;
2998;SDS011;1509;51.964;7.628;2023-02-28T13:17:41;2.87;;;2.60;;
2998;SDS011;1509;51.964;7.628;2023-02-28T13:20:16;6.70;;;3.87;;
2998;SDS011;1509;51.964;7.628;2023-02-28T13:22:51;3.63;;;2.93;;
2998;SDS011;1509;51.964;7.628;2023-02-28T13:27:47;3.57;;;2.83;;
2998;SDS011;1509;51.964;7.628;2023-02-28T13:46:35;4.20;;;3.30;;
2998;SDS011;1509;51.964;7.628;2023-02-28T13:57:49;3.83;;;2.70;;
2998;SDS011;1509;51.964;7.628;2023-02-28T14:06:30;3.90;;;2.50;;
2998;SDS011;1509;51.964;7.628;2023-02-28T14:09:02;4.70;;;2.47;;
2998;SDS011;1509;51.964;7.628;2023-02-28T14:11:41;3.53;;;2.47;;
2998;SDS011;1509;51.964;7.628;2023-02-28T14:14:08;4.20;;;2.80;;
2998;SDS011;1509;51.964;7.628;2023-02-28T14:16:54;4.70;;;3.10;;
2998;SDS011;1509;51.964;7.628;2023-02-28T14:19:27;4.10;;;3.30;;
2998;SDS011;1509;51.964;7.628;2023-02-28T14:33:13;4.27;;;3.27;;
2998;SDS011;1509;51.964;7.628;2023-02-28T14:36:18;6.13;;;3.67;;
2998;SDS011;1509;51.964;7.628;2023-02-28T14:38:52;3.93;;;3.17;;
2998;SDS011;1509;51.964;7.628;2023-02-28T14:41:27;4.37;;;3.60;;
2998;SDS011;1509;51.964;7.628;2023-02-28T14:43:56;5.53;;;3.30;;
2998;SDS011;1509;51.964;7.628;2023-02-28T14:46:25;6.23;;;4.00;;
2998;SDS011;1509;51.964;7.628;2023-02-28T14:49:03;4.10;;;3.43;;
2998;SDS011;1509;51.964;7.628;2023-02-28T14:51:37;5.70;;;4.23;;
2998;SDS011;1509;51.964;7.628;2023-02-28T14:54:03;3.40;;;3.07;;
2998;SDS011;1509;51.964;7.628;2023-02-28T14:56:38;4.83;;;3.97;;
2998;SDS011;1509;51.964;7.628;2023-02-28T14:59:05;5.20;;;3.93;;
2998;SDS011;1509;51.964;7.628;2023-02-28T15:01:48;5.83;;;4.00;;
2998;SDS011;1509;51.964;7.628;2023-02-28T15:04:20;3.60;;;3.10;;
2998;SDS011;1509;51.964;7.628;2023-02-28T15:07:09;5.50;;;4.03;;
2998;SDS011;1509;51.964;7.628;2023-02-28T15:09:38;5.23;;;3.90;;
2998;SDS011;1509;51.964;7.628;2023-02-28T15:12:07;7.63;;;4.97;;
2998;SDS011;1509;51.964;7.628;2023-02-28T15:14:32;3.80;;;3.30;;
2998;SDS011;1509;51.964;7.628;2023-02-28T15:17:05;5.63;;;3.57;;
2998;SDS011;1509;51.964;7.628;2023-02-28T15:19:37;4.43;;;3.53;;
2998;SDS011;1509;51.964;7.628;2023-02-28T15:22:13;4.83;;;3.50;;
2998;SDS011;1509;51.964;7.628;2023-02-28T15:24:46;6.23;;;3.40;;
2998;SDS011;1509;51.964;7.628;2023-02-28T15:29:46;4.30;;;3.60;;
2998;SDS011;1509;51.964;7.628;2023-02-28T15:35:27;4.07;;;2.50;;
2998;SDS011;1509;51.964;7.628;2023-02-28T15:37:55;5.90;;;3.23;;
2998;SDS011;1509;51.964;7.628;2023-02-28T15:40:26;3.77;;;3.37;;
2998;SDS011;1509;51.964;7.628;2023-02-28T15:43:18;4.77;;;3.20;;
2998;SDS011;1509;51.964;7.628;2023-02-28T15:49:12;4.60;;;3.37;;
2998;SDS011;1509;51.964;7.628;2023-02-28T15:51:18;6.80;;;3.33;;
2998;SDS011;1509;51.964;7.628;2023-02-28T15:53:48;3.20;;;2.63;;
2998;SDS011;1509;51.964;7.628;2023-02-28T15:58:57;6.00;;;4.60;;
2998;SDS011;1509;51.964;7.628;2023-02-28T16:01:28;8.53;;;3.13;;
2998;SDS011;1509;51.964;7.628;2023-02-28T16:04:21;6.90;;;3.10;;
2998;SDS011;1509;51.964;7.628;2023-02-28T16:09:23;4.30;;;2.93;;
2998;SDS011;1509;51.964;7.628;2023-02-28T16:11:49;3.93;;;2.73;;
2998;SDS011;1509;51.964;7.628;2023-02-28T16:14:25;4.00;;;3.20;;
2998;SDS011;1509;51.964;7.628;2023-02-28T16:16:56;6.30;;;3.27;;
2998;SDS011;1509;51.964;7.628;2023-02-28T16:19:27;3.90;;;2.77;;
2998;SDS011;1509;51.964;7.628;2023-02-28T16:21:53;4.17;;;2.77;;
2998;SDS011;1509;51.964;7.628;2023-02-28T16:24:19;4.60;;;2.90;;
2998;SDS011;1509;51.964;7.628;2023-02-28T16:26:47;6.57;;;3.03;;
2998;SDS011;1509;51.964;7.628;2023-02-28T16:29:21;4.60;;;2.77;;
2998;SDS011;1509;51.964;7.628;2023-02-28T16:31:53;4.30;;;3.07;;
2998;SDS011;1509;51.964;7.628;2023-02-28T16:34:19;5.43;;;4.53;;
2998;SDS011;1509;51.964;7.628;2023-02-28T16:36:46;7.70;;;3.83;;
2998;SDS011;1509;51.964;7.628;2023-02-28T16:39:13;5.43;;;3.13;;
2998;SDS011;1509;51.964;7.628;2023-02-28T16:41:39;6.50;;;3.50;;
2998;SDS011;1509;51.964;7.628;2023-02-28T16:44:09;5.60;;;3.30;;
2998;SDS011;1509;51.964;7.628;2023-02-28T16:46:52;6.13;;;3.17;;
2998;SDS011;1509;51.964;7.628;2023-02-28T16:49:18;5.43;;;3.50;;
2998;SDS011;1509;51.964;7.628;2023-02-28T16:51:43;4.73;;;3.30;;
2998;SDS011;1509;51.964;7.628;2023-02-28T16:54:09;5.50;;;4.40;;
2998;SDS011;1509;51.964;7.628;2023-02-28T16:56:35;5.93;;;4.27;;
2998;SDS011;1509;51.964;7.628;2023-02-28T16:59:01;5.77;;;4.40;;
2998;SDS011;1509;51.964;7.628;2023-02-28T17:01:30;5.20;;;4.13;;
2998;SDS011;1509;51.964;7.628;2023-02-28T17:03:56;4.87;;;3.77;;
2998;SDS011;1509;51.964;7.628;2023-02-28T17:06:23;5.53;;;3.90;;
2998;SDS011;1509;51.964;7.628;2023-02-28T17:08:52;5.30;;;4.10;;
2998;SDS011;1509;51.964;7.628;2023-02-28T17:11:19;7.40;;;4.00;;
2998;SDS011;1509;51.964;7.628;2023-02-28T17:13:45;10.67;;;4.70;;
2998;SDS011;1509;51.964;7.628;2023-02-28T17:16:13;7.67;;;4.90;;
2998;SDS011;1509;51.964;7.628;2023-02-28T17:18:44;5.90;;;4.20;;
2998;SDS011;1509;51.964;7.628;2023-02-28T17:21:12;7.20;;;4.37;;
2998;SDS011;1509;51.964;7.628;2023-02-28T17:23:40;9.83;;;5.00;;
2998;SDS011;1509;51.964;7.628;2023-02-28T17:26:05;7.77;;;5.50;;
2998;SDS011;1509;51.964;7.628;2023-02-28T17:28:31;7.27;;;4.80;;
2998;SDS011;1509;51.964;7.628;2023-02-28T17:30:57;10.00;;;6.87;;
2998;SDS011;1509;51.964;7.628;2023-02-28T17:33:23;6.23;;;5.00;;
2998;SDS011;1509;51.964;7.628;2023-02-28T17:35:48;9.20;;;5.97;;
2998;SDS011;1509;51.964;7.628;2023-02-28T17:38:15;6.40;;;5.80;;
2998;SDS011;1509;51.964;7.628;2023-02-28T17:40:42;5.60;;;4.70;;
2998;SDS011;1509;51.964;7.628;2023-02-28T17:43:10;8.37;;;5.10;;
2998;SDS011;1509;51.964;7.628;2023-02-28T17:45:36;9.03;;;5.87;;
2998;SDS011;1509;51.964;7.628;2023-02-28T17:48:04;7.17;;;5.30;;
2998;SDS011;1509;51.964;7.628;2023-02-28T17:50:30;5.57;;;4.27;;
2998;SDS011;1509;51.964;7.628;2023-02-28T17:52:56;6.60;;;5.10;;
2998;SDS011;1509;51.964;7.628;2023-02-28T17:55:23;6.90;;;5.10;;
2998;SDS011;1509;51.964;7.628;2023-02-28T17:57:49;7.80;;;6.07;;
2998;SDS011;1509;51.964;7.628;2023-02-28T18:00:15;12.10;;;5.43;;
2998;SDS011;1509;51.964;7.628;2023-02-28T18:02:42;8.00;;;5.47;;
2998;SDS011;1509;51.964;7.628;2023-02-28T18:05:08;9.43;;;5.63;;
2998;SDS011;1509;51.964;7.628;2023-02-28T18:07:38;5.40;;;4.90;;
2998;SDS011;1509;51.964;7.628;2023-02-28T18:10:07;8.73;;;5.73;;
2998;SDS011;1509;51.964;7.628;2023-02-28T18:12:40;13.13;;;6.43;;